Time;durP1;ratioP1;P1;durP2;ratioP2;P2;SDS_P1;SDS_P2;PMS_P1;PMS_P2;Temp;Humidity;BMP_temperature;BMP_pressure;BME280_temperature;BME280_humidity;BME280_pressure;Samples;Min_cycle;Max_cycle;Signal;HPM_P1;HPM_P2
2022/01/07 00:02:06;;;;;;;6.63;3.53;;;;;;;;;;5054428;28;20173;-70
2022/01/07 00:04:33;;;;;;;5.47;3.67;;;;;;;;;;5055357;28;20553;-70
2022/01/07 00:06:59;;;;;;;10.13;3.80;;;;;;;;;;5034922;28;20189;-70
2022/01/07 00:09:24;;;;;;;6.97;3.80;;;;;;;;;;5049283;28;20181;-70
2022/01/07 00:11:49;;;;;;;8.40;4.07;;;;;;;;;;5048914;28;20238;-70
2022/01/07 00:14:14;;;;;;;8.03;3.83;;;;;;;;;;5049109;28;20184;-70
2022/01/07 00:16:39;;;;;;;4.90;3.53;;;;;;;;;;5058207;28;20197;-70
2022/01/07 00:19:05;;;;;;;11.37;4.73;;;;;;;;;;5062880;28;20173;-70
2022/01/07 00:21:30;;;;;;;14.67;4.20;;;;;;;;;;5057510;28;20177;-69
2022/01/07 00:23:55;;;;;;;13.30;4.90;;;;;;;;;;5061944;28;20639;-70
2022/01/07 00:26:20;;;;;;;9.07;5.20;;;;;;;;;;5059454;28;20770;-70
2022/01/07 00:28:45;;;;;;;12.67;4.60;;;;;;;;;;5053744;28;20164;-70
2022/01/07 00:31:11;;;;;;;7.47;4.30;;;;;;;;;;5064689;28;20941;-70
2022/01/07 00:33:36;;;;;;;11.07;4.80;;;;;;;;;;5050403;28;20181;-70
2022/01/07 00:36:01;;;;;;;7.23;3.77;;;;;;;;;;5058238;22;20252;-71
2022/01/07 00:38:29;;;;;;;8.13;3.70;;;;;;;;;;5038544;28;20522;-70
2022/01/07 00:40:55;;;;;;;11.07;4.33;;;;;;;;;;5018815;28;20206;-72
2022/01/07 00:43:20;;;;;;;10.40;4.50;;;;;;;;;;5018888;28;20278;-73
2022/01/07 00:45:45;;;;;;;9.77;3.80;;;;;;;;;;5028289;28;20384;-71
2022/01/07 00:48:10;;;;;;;10.00;4.30;;;;;;;;;;5022619;28;20188;-73
2022/01/07 00:50:35;;;;;;;8.47;4.47;;;;;;;;;;5024589;28;20281;-71
2022/01/07 00:53:01;;;;;;;8.90;3.33;;;;;;;;;;5022387;28;20186;-72
2022/01/07 00:55:27;;;;;;;6.37;4.27;;;;;;;;;;5026622;28;20341;-73
2022/01/07 00:57:52;;;;;;;8.70;3.70;;;;;;;;;;5023694;28;20197;-72
2022/01/07 01:00:18;;;;;;;9.87;4.60;;;;;;;;;;5024059;28;20198;-73
2022/01/07 01:02:44;;;;;;;14.47;4.17;;;;;;;;;;5020682;28;20559;-71
2022/01/07 01:05:10;;;;;;;7.37;4.33;;;;;;;;;;5020096;28;20182;-73
2022/01/07 01:07:36;;;;;;;8.67;3.93;;;;;;;;;;5038095;28;20293;-73
2022/01/07 01:10:05;;;;;;;7.83;3.90;;;;;;;;;;5022921;28;20266;-72
2022/01/07 01:12:31;;;;;;;10.83;4.13;;;;;;;;;;5022956;28;20639;-72
2022/01/07 01:14:56;;;;;;;7.67;4.13;;;;;;;;;;5022916;28;20271;-73
2022/01/07 01:17:21;;;;;;;9.97;4.00;;;;;;;;;;5022095;28;20220;-71
2022/01/07 01:19:46;;;;;;;6.03;4.20;;;;;;;;;;5028534;28;20211;-70
2022/01/07 01:22:11;;;;;;;5.47;3.73;;;;;;;;;;5028515;28;20190;-70
2022/01/07 01:24:37;;;;;;;7.50;4.00;;;;;;;;;;5027747;28;20173;-71
2022/01/07 01:27:02;;;;;;;16.03;4.67;;;;;;;;;;5024516;28;20210;-70
2022/01/07 01:29:27;;;;;;;11.40;4.27;;;;;;;;;;5024129;28;20700;-70
2022/01/07 01:31:53;;;;;;;7.27;4.33;;;;;;;;;;5025597;28;20193;-71
2022/01/07 01:34:18;;;;;;;11.27;4.80;;;;;;;;;;5024935;28;20185;-71
2022/01/07 01:36:43;;;;;;;7.97;5.40;;;;;;;;;;5025729;28;20243;-71
2022/01/07 01:39:12;;;;;;;8.93;5.30;;;;;;;;;;5021679;28;20647;-70
2022/01/07 01:41:37;;;;;;;10.33;5.10;;;;;;;;;;5020339;28;20185;-70
2022/01/07 01:44:02;;;;;;;8.73;4.73;;;;;;;;;;5022881;28;20203;-70
2022/01/07 01:46:27;;;;;;;11.73;6.00;;;;;;;;;;5023735;28;20248;-70
2022/01/07 01:48:53;;;;;;;15.40;5.27;;;;;;;;;;5023387;28;20626;-70
2022/01/07 01:51:18;;;;;;;13.93;6.00;;;;;;;;;;5022137;28;20209;-70
2022/01/07 01:53:43;;;;;;;10.47;5.43;;;;;;;;;;5021378;28;20184;-71
2022/01/07 01:56:08;;;;;;;8.37;5.17;;;;;;;;;;5022774;28;20196;-71
2022/01/07 01:58:34;;;;;;;7.17;4.67;;;;;;;;;;5023490;28;20186;-71
2022/01/07 02:00:59;;;;;;;8.90;5.30;;;;;;;;;;5023342;28;20373;-71
2022/01/07 02:03:24;;;;;;;13.27;5.50;;;;;;;;;;5021754;28;20183;-71
2022/01/07 02:05:49;;;;;;;13.63;5.33;;;;;;;;;;5020711;28;20222;-71
2022/01/07 02:08:15;;;;;;;9.70;5.07;;;;;;;;;;5020425;28;20262;-70
2022/01/07 02:10:40;;;;;;;7.73;4.83;;;;;;;;;;5023085;28;20178;-71
2022/01/07 02:13:06;;;;;;;6.10;4.33;;;;;;;;;;5024985;28;20574;-71
2022/01/07 02:15:31;;;;;;;11.43;5.03;;;;;;;;;;5023349;28;20235;-70
2022/01/07 02:17:57;;;;;;;12.73;5.23;;;;;;;;;;5023017;28;20186;-71
2022/01/07 02:20:25;;;;;;;7.57;4.47;;;;;;;;;;5036521;28;20202;-70
2022/01/07 02:22:50;;;;;;;8.73;4.23;;;;;;;;;;5021027;28;20207;-72
2022/01/07 02:25:15;;;;;;;9.77;4.20;;;;;;;;;;5021890;28;20270;-70
2022/01/07 02:27:42;;;;;;;11.30;4.07;;;;;;;;;;5022865;28;20294;-71
2022/01/07 02:30:09;;;;;;;9.77;4.33;;;;;;;;;;5007061;28;21214;-70
2022/01/07 02:32:34;;;;;;;7.57;3.77;;;;;;;;;;5023449;28;20201;-70
2022/01/07 02:34:59;;;;;;;8.87;4.20;;;;;;;;;;5020178;28;20194;-70
2022/01/07 02:37:24;;;;;;;8.13;4.80;;;;;;;;;;5019644;28;20224;-71
2022/01/07 02:39:51;;;;;;;7.03;4.27;;;;;;;;;;5013201;28;20272;-70
2022/01/07 02:42:16;;;;;;;6.27;4.43;;;;;;;;;;5022514;28;20189;-70
2022/01/07 02:44:41;;;;;;;8.47;4.47;;;;;;;;;;5024855;28;20182;-70
2022/01/07 02:47:06;;;;;;;10.07;4.93;;;;;;;;;;5028553;28;20202;-71
2022/01/07 02:49:31;;;;;;;8.83;4.83;;;;;;;;;;5025185;28;20182;-70
2022/01/07 02:51:57;;;;;;;8.87;4.80;;;;;;;;;;5028395;28;20320;-70
2022/01/07 02:54:22;;;;;;;6.50;4.57;;;;;;;;;;5025440;28;20189;-71
2022/01/07 02:56:47;;;;;;;7.97;4.90;;;;;;;;;;5025179;28;20628;-71
2022/01/07 02:59:12;;;;;;;7.70;5.10;;;;;;;;;;5023651;28;20178;-70
2022/01/07 03:01:38;;;;;;;11.87;5.50;;;;;;;;;;5022089;28;20189;-71
2022/01/07 03:04:04;;;;;;;8.57;5.20;;;;;;;;;;5022040;28;20193;-70
2022/01/07 03:06:29;;;;;;;7.93;5.40;;;;;;;;;;5021849;28;20357;-70
2022/01/07 03:08:54;;;;;;;7.93;5.40;;;;;;;;;;5020706;28;20201;-70
2022/01/07 03:11:20;;;;;;;9.83;5.77;;;;;;;;;;5013842;28;20182;-70
2022/01/07 03:13:45;;;;;;;9.57;5.47;;;;;;;;;;5027715;28;20182;-70
2022/01/07 03:16:11;;;;;;;7.60;5.33;;;;;;;;;;5037345;28;20209;-70
2022/01/07 03:18:36;;;;;;;8.50;5.30;;;;;;;;;;5027731;28;20189;-70
2022/01/07 03:21:01;;;;;;;8.27;6.00;;;;;;;;;;5020770;28;20527;-70
2022/01/07 03:23:27;;;;;;;10.70;5.70;;;;;;;;;;5021776;28;20185;-70
2022/01/07 03:25:52;;;;;;;8.37;5.23;;;;;;;;;;5020929;28;20758;-70
2022/01/07 03:28:17;;;;;;;7.43;5.37;;;;;;;;;;5027980;28;21113;-72
2022/01/07 03:30:42;;;;;;;9.50;6.40;;;;;;;;;;5023247;28;20178;-70
2022/01/07 03:33:08;;;;;;;8.07;5.10;;;;;;;;;;5023533;28;20173;-70
2022/01/07 03:35:33;;;;;;;8.50;6.17;;;;;;;;;;5024743;28;20604;-69
2022/01/07 03:37:58;;;;;;;6.93;5.70;;;;;;;;;;5022882;28;20205;-69
2022/01/07 03:40:23;;;;;;;7.10;5.93;;;;;;;;;;5021496;28;20243;-70
2022/01/07 03:42:49;;;;;;;11.43;6.67;;;;;;;;;;5024614;28;20174;-71
2022/01/07 03:45:15;;;;;;;6.97;5.77;;;;;;;;;;5026759;28;20180;-70
2022/01/07 03:47:41;;;;;;;9.33;6.10;;;;;;;;;;5027636;28;20317;-69
2022/01/07 03:50:07;;;;;;;11.47;6.67;;;;;;;;;;5024461;28;20184;-70
2022/01/07 03:52:33;;;;;;;7.77;6.47;;;;;;;;;;5024624;28;20190;-70
2022/01/07 03:54:58;;;;;;;8.50;7.00;;;;;;;;;;5023916;28;20177;-70
2022/01/07 03:57:23;;;;;;;9.13;6.40;;;;;;;;;;5025352;28;20687;-69
2022/01/07 03:59:50;;;;;;;10.13;7.00;;;;;;;;;;5025568;28;20666;-69
2022/01/07 04:02:15;;;;;;;10.00;6.43;;;;;;;;;;5023372;28;20615;-69
2022/01/07 04:04:41;;;;;;;8.97;6.43;;;;;;;;;;5022279;28;20273;-69
2022/01/07 04:07:06;;;;;;;8.30;6.30;;;;;;;;;;5019824;28;20408;-70
2022/01/07 04:09:31;;;;;;;9.13;8.00;;;;;;;;;;5025082;28;20181;-70
2022/01/07 04:11:58;;;;;;;9.33;7.77;;;;;;;;;;5028708;28;20380;-70
2022/01/07 04:14:24;;;;;;;10.80;7.57;;;;;;;;;;5021261;28;20656;-69
2022/01/07 04:16:49;;;;;;;10.03;7.37;;;;;;;;;;5026005;28;20878;-69
2022/01/07 04:19:14;;;;;;;10.30;7.30;;;;;;;;;;5024352;28;20186;-70
2022/01/07 04:21:39;;;;;;;8.97;8.07;;;;;;;;;;5028437;28;20658;-70
2022/01/07 04:24:04;;;;;;;10.80;7.17;;;;;;;;;;5017018;28;20652;-70
2022/01/07 04:26:30;;;;;;;10.90;8.07;;;;;;;;;;5024868;28;20493;-70
2022/01/07 04:28:55;;;;;;;11.73;8.67;;;;;;;;;;5023466;28;20174;-70
2022/01/07 04:31:20;;;;;;;11.30;8.43;;;;;;;;;;5019908;28;20225;-70
2022/01/07 04:33:45;;;;;;;9.93;8.40;;;;;;;;;;5022538;28;20193;-70
2022/01/07 04:36:10;;;;;;;10.60;8.70;;;;;;;;;;5023416;28;20236;-70
2022/01/07 04:38:36;;;;;;;9.63;7.93;;;;;;;;;;5022786;28;20651;-70
2022/01/07 04:41:01;;;;;;;9.83;8.37;;;;;;;;;;5024377;28;20867;-70
2022/01/07 04:43:26;;;;;;;11.70;9.33;;;;;;;;;;5023616;28;20190;-70
2022/01/07 04:45:51;;;;;;;11.27;9.17;;;;;;;;;;5027667;28;20517;-70
2022/01/07 04:48:17;;;;;;;14.47;10.10;;;;;;;;;;5018836;28;20187;-70
2022/01/07 04:50:42;;;;;;;11.87;9.47;;;;;;;;;;5025683;28;20542;-70
2022/01/07 04:53:07;;;;;;;12.97;10.53;;;;;;;;;;5024470;28;20205;-70
2022/01/07 04:55:37;;;;;;;12.27;10.13;;;;;;;;;;5025302;28;20203;-70
2022/01/07 04:58:07;;;;;;;14.57;10.73;;;;;;;;;;5021029;28;20686;-70
2022/01/07 05:00:32;;;;;;;17.37;10.33;;;;;;;;;;5024797;28;20901;-70
2022/01/07 05:02:57;;;;;;;16.37;11.67;;;;;;;;;;5022138;28;20631;-70
2022/01/07 05:05:23;;;;;;;15.27;11.80;;;;;;;;;;5023528;28;20562;-70
2022/01/07 05:07:48;;;;;;;14.77;12.90;;;;;;;;;;5020299;28;20185;-70
2022/01/07 05:10:14;;;;;;;14.13;12.50;;;;;;;;;;5025065;28;20207;-70
2022/01/07 05:12:40;;;;;;;15.50;12.67;;;;;;;;;;5021214;28;20174;-70
2022/01/07 05:15:06;;;;;;;15.80;13.10;;;;;;;;;;5019489;28;20190;-70
2022/01/07 05:17:32;;;;;;;25.13;13.90;;;;;;;;;;5021692;28;20206;-70
2022/01/07 05:19:57;;;;;;;16.83;12.97;;;;;;;;;;5023658;28;20205;-72
2022/01/07 05:22:23;;;;;;;17.20;14.20;;;;;;;;;;5023055;28;20558;-70
2022/01/07 05:24:48;;;;;;;18.63;13.97;;;;;;;;;;5025131;28;20276;-69
2022/01/07 05:27:13;;;;;;;20.60;15.10;;;;;;;;;;5023012;28;20616;-70
2022/01/07 05:29:38;;;;;;;20.20;13.40;;;;;;;;;;5023433;28;20258;-70
2022/01/07 05:32:07;;;;;;;20.17;13.83;;;;;;;;;;5017641;28;20235;-70
2022/01/07 05:34:32;;;;;;;19.37;13.93;;;;;;;;;;5007073;28;20338;-73
2022/01/07 05:36:58;;;;;;;18.23;14.27;;;;;;;;;;5022845;28;20578;-70
2022/01/07 05:39:23;;;;;;;18.20;14.63;;;;;;;;;;5022227;28;20738;-69
2022/01/07 05:41:48;;;;;;;18.13;14.10;;;;;;;;;;5025683;28;20177;-70
2022/01/07 05:44:13;;;;;;;18.60;15.43;;;;;;;;;;5013985;28;20210;-70
2022/01/07 05:46:39;;;;;;;19.30;15.20;;;;;;;;;;5021299;28;20286;-70
2022/01/07 05:49:04;;;;;;;21.27;15.10;;;;;;;;;;5010849;28;20216;-70
2022/01/07 05:51:29;;;;;;;17.97;14.33;;;;;;;;;;5022226;28;20213;-70
2022/01/07 05:53:54;;;;;;;19.33;15.33;;;;;;;;;;5022995;28;20224;-70
2022/01/07 05:56:19;;;;;;;15.77;13.33;;;;;;;;;;5024010;28;20930;-70
2022/01/07 05:58:45;;;;;;;18.00;13.13;;;;;;;;;;5022078;28;20286;-70
2022/01/07 06:01:11;;;;;;;20.07;13.50;;;;;;;;;;5035878;28;20208;-70
2022/01/07 06:03:36;;;;;;;15.53;13.63;;;;;;;;;;5050777;28;20186;-70
2022/01/07 06:06:01;;;;;;;20.93;13.63;;;;;;;;;;5022992;28;20770;-70
2022/01/07 06:08:27;;;;;;;19.30;13.80;;;;;;;;;;5022140;28;20182;-70
2022/01/07 06:10:52;;;;;;;19.33;14.00;;;;;;;;;;5025112;28;20281;-70
2022/01/07 06:13:17;;;;;;;23.87;14.97;;;;;;;;;;5021344;28;20182;-70
2022/01/07 06:15:42;;;;;;;25.60;13.50;;;;;;;;;;5021842;28;20202;-70
2022/01/07 06:18:07;;;;;;;20.57;14.50;;;;;;;;;;5024879;28;20201;-70
2022/01/07 06:20:33;;;;;;;22.00;14.57;;;;;;;;;;5025643;28;20225;-70
2022/01/07 06:22:58;;;;;;;21.70;15.43;;;;;;;;;;5028423;28;20244;-70
2022/01/07 06:25:23;;;;;;;22.80;13.77;;;;;;;;;;5025537;28;20183;-70
2022/01/07 06:27:48;;;;;;;20.10;14.70;;;;;;;;;;5026921;28;20178;-70
2022/01/07 06:30:14;;;;;;;25.17;15.07;;;;;;;;;;5025002;28;20198;-70
2022/01/07 06:32:39;;;;;;;21.87;16.40;;;;;;;;;;5025114;28;20329;-70
2022/01/07 06:35:05;;;;;;;23.50;16.07;;;;;;;;;;5027405;28;20501;-70
2022/01/07 06:37:30;;;;;;;24.60;15.27;;;;;;;;;;5024467;28;20221;-69
2022/01/07 06:39:56;;;;;;;23.80;15.60;;;;;;;;;;5026930;28;20197;-70
2022/01/07 06:42:21;;;;;;;24.80;15.80;;;;;;;;;;5021951;28;20185;-70
2022/01/07 06:44:47;;;;;;;21.00;15.47;;;;;;;;;;5026290;28;20179;-70
2022/01/07 06:47:12;;;;;;;20.40;15.13;;;;;;;;;;5026983;28;20202;-69
2022/01/07 06:49:38;;;;;;;26.33;17.17;;;;;;;;;;5020848;28;20237;-69
2022/01/07 06:52:03;;;;;;;27.47;15.80;;;;;;;;;;5027925;28;20179;-70
2022/01/07 06:54:28;;;;;;;20.90;15.73;;;;;;;;;;5025694;28;20178;-68
2022/01/07 06:56:54;;;;;;;24.83;16.87;;;;;;;;;;5026139;28;20239;-69
2022/01/07 06:59:19;;;;;;;23.27;15.97;;;;;;;;;;5027829;28;20209;-69
2022/01/07 07:01:47;;;;;;;19.37;14.80;;;;;;;;;;5021092;28;21652;-69
2022/01/07 07:04:13;;;;;;;22.53;14.70;;;;;;;;;;5025615;28;20237;-70
2022/01/07 07:06:38;;;;;;;22.97;14.20;;;;;;;;;;5024701;28;20205;-70
2022/01/07 07:09:04;;;;;;;21.97;15.33;;;;;;;;;;5024403;28;20177;-69
2022/01/07 07:11:29;;;;;;;20.03;14.40;;;;;;;;;;5024460;28;20514;-70
2022/01/07 07:13:54;;;;;;;21.90;15.10;;;;;;;;;;5025527;28;20329;-69
2022/01/07 07:16:20;;;;;;;24.67;16.80;;;;;;;;;;5023916;28;20586;-69
2022/01/07 07:18:45;;;;;;;21.17;14.83;;;;;;;;;;5025572;28;20185;-69
2022/01/07 07:21:11;;;;;;;20.90;15.23;;;;;;;;;;5022766;28;20193;-69
2022/01/07 07:23:36;;;;;;;20.90;13.63;;;;;;;;;;5026158;28;20661;-69
2022/01/07 07:26:01;;;;;;;21.83;13.63;;;;;;;;;;5030067;28;20224;-69
2022/01/07 07:28:26;;;;;;;14.60;11.70;;;;;;;;;;5024239;28;20266;-70
2022/01/07 07:30:54;;;;;;;14.93;12.10;;;;;;;;;;5024541;28;20182;-69
2022/01/07 07:38:41;;;;;;;19.30;12.40;;;;;;;;;;5024933;28;20573;-70
2022/01/07 07:41:07;;;;;;;16.20;12.03;;;;;;;;;;5026416;28;20702;-68
2022/01/07 07:43:36;;;;;;;17.43;12.00;;;;;;;;;;5031493;28;20241;-69
2022/01/07 07:46:01;;;;;;;18.37;11.67;;;;;;;;;;5017556;28;20205;-69
2022/01/07 07:48:26;;;;;;;15.10;11.63;;;;;;;;;;5023079;28;20182;-70
2022/01/07 07:50:51;;;;;;;22.83;11.63;;;;;;;;;;5021102;28;20182;-69
2022/01/07 07:53:18;;;;;;;14.67;10.87;;;;;;;;;;5023652;28;20271;-69
2022/01/07 07:55:44;;;;;;;15.87;10.57;;;;;;;;;;5017594;28;20384;-68
2022/01/07 07:58:09;;;;;;;15.43;10.17;;;;;;;;;;5023278;28;20188;-70
2022/01/07 08:00:34;;;;;;;16.33;11.13;;;;;;;;;;5024336;28;20193;-70
2022/01/07 08:02:59;;;;;;;18.27;10.00;;;;;;;;;;5024065;28;20174;-70
2022/01/07 08:05:25;;;;;;;15.23;9.53;;;;;;;;;;5021535;28;20327;-70
2022/01/07 08:07:50;;;;;;;15.00;8.83;;;;;;;;;;5016086;28;20182;-70
2022/01/07 08:10:22;;;;;;;13.70;9.70;;;;;;;;;;5020849;28;20174;-70
2022/01/07 08:15:58;;;;;;;12.70;8.77;;;;;;;;;;5005722;28;20255;-69
2022/01/07 08:18:24;;;;;;;16.87;9.10;;;;;;;;;;5025410;28;20174;-69
2022/01/07 08:20:52;;;;;;;16.70;8.90;;;;;;;;;;5023614;28;20220;-70
2022/01/07 08:23:18;;;;;;;18.33;9.53;;;;;;;;;;5023755;28;20182;-70
2022/01/07 08:25:43;;;;;;;14.17;9.20;;;;;;;;;;5025241;28;20232;-69
2022/01/07 08:28:09;;;;;;;17.63;11.43;;;;;;;;;;5029004;28;20277;-70
2022/01/07 08:30:48;;;;;;;16.90;9.67;;;;;;;;;;5023418;28;20568;-70
2022/01/07 08:35:57;;;;;;;19.97;10.77;;;;;;;;;;5029705;28;20217;-70
2022/01/07 08:38:22;;;;;;;17.00;9.40;;;;;;;;;;5020290;28;20194;-70
2022/01/07 08:40:47;;;;;;;18.80;9.50;;;;;;;;;;5026443;28;20592;-70
2022/01/07 08:43:12;;;;;;;14.40;10.33;;;;;;;;;;5029006;28;20194;-69
2022/01/07 08:45:39;;;;;;;15.10;9.50;;;;;;;;;;5035774;28;20166;-69
2022/01/07 08:48:05;;;;;;;14.30;8.83;;;;;;;;;;5039243;28;20543;-69
2022/01/07 08:50:30;;;;;;;18.20;10.40;;;;;;;;;;5030996;28;20195;-68
2022/01/07 08:53:00;;;;;;;15.17;8.50;;;;;;;;;;5019248;28;20284;-68
2022/01/07 08:55:25;;;;;;;12.77;8.33;;;;;;;;;;5019879;28;20178;-70
2022/01/07 08:57:51;;;;;;;17.97;9.63;;;;;;;;;;5028777;28;20275;-68
2022/01/07 09:00:16;;;;;;;13.40;9.00;;;;;;;;;;5021918;28;20202;-68
2022/01/07 09:02:41;;;;;;;14.43;8.97;;;;;;;;;;5023468;28;20218;-68
2022/01/07 09:05:07;;;;;;;14.30;8.67;;;;;;;;;;5026978;28;20177;-68
2022/01/07 09:07:33;;;;;;;16.00;8.53;;;;;;;;;;5014452;28;20211;-69
2022/01/07 09:09:59;;;;;;;18.67;9.27;;;;;;;;;;5023777;28;20177;-69
2022/01/07 09:12:24;;;;;;;13.67;8.73;;;;;;;;;;5029421;28;20193;-67
2022/01/07 09:14:49;;;;;;;19.40;8.67;;;;;;;;;;5024592;28;20312;-68
2022/01/07 09:17:14;;;;;;;15.23;8.07;;;;;;;;;;5023012;28;20233;-68
2022/01/07 09:19:40;;;;;;;17.47;8.57;;;;;;;;;;5025236;28;20614;-69
2022/01/07 09:22:05;;;;;;;14.17;9.50;;;;;;;;;;5029850;28;20529;-68
2022/01/07 09:24:30;;;;;;;16.47;9.50;;;;;;;;;;5022600;28;20201;-68
2022/01/07 09:26:58;;;;;;;19.57;9.43;;;;;;;;;;5026648;28;20673;-67
2022/01/07 09:29:24;;;;;;;12.90;8.53;;;;;;;;;;5021901;28;20178;-68
2022/01/07 09:31:53;;;;;;;10.90;8.00;;;;;;;;;;5021406;28;20184;-67
2022/01/07 09:34:18;;;;;;;13.00;8.17;;;;;;;;;;5023077;28;20201;-68
2022/01/07 09:36:44;;;;;;;10.73;7.10;;;;;;;;;;5019870;28;20218;-68
2022/01/07 09:39:09;;;;;;;14.87;7.27;;;;;;;;;;5019081;28;20173;-68
2022/01/07 09:41:34;;;;;;;11.50;6.90;;;;;;;;;;5022692;28;20202;-68
2022/01/07 09:44:01;;;;;;;18.00;7.30;;;;;;;;;;5023428;28;20340;-68
2022/01/07 09:46:26;;;;;;;12.90;6.20;;;;;;;;;;5023970;28;21038;-68
2022/01/07 09:48:51;;;;;;;10.23;6.23;;;;;;;;;;5021974;28;22125;-68
2022/01/07 09:51:17;;;;;;;11.67;6.43;;;;;;;;;;5024379;28;20232;-69
2022/01/07 09:53:42;;;;;;;12.50;6.03;;;;;;;;;;5031008;28;20182;-68
2022/01/07 09:56:08;;;;;;;10.50;6.30;;;;;;;;;;5023989;28;20720;-67
2022/01/07 09:58:34;;;;;;;9.33;5.60;;;;;;;;;;5027295;28;20184;-67
2022/01/07 10:01:04;;;;;;;9.10;5.43;;;;;;;;;;5028982;28;20212;-70
2022/01/07 10:03:35;;;;;;;11.83;6.37;;;;;;;;;;5023291;28;20725;-67
2022/01/07 10:06:00;;;;;;;11.53;6.00;;;;;;;;;;5024948;28;20201;-68
2022/01/07 10:08:26;;;;;;;9.83;5.47;;;;;;;;;;5030124;28;20177;-68
2022/01/07 10:11:13;;;;;;;13.07;6.43;;;;;;;;;;5039818;28;20178;-67
2022/01/07 10:13:39;;;;;;;13.03;6.33;;;;;;;;;;5024151;28;20329;-68
2022/01/07 10:16:16;;;;;;;10.73;5.87;;;;;;;;;;5027583;28;20197;-68
2022/01/07 10:18:42;;;;;;;11.57;6.53;;;;;;;;;;5024180;28;20291;-70
2022/01/07 10:21:08;;;;;;;9.93;5.83;;;;;;;;;;5022387;28;20190;-68
2022/01/07 10:23:33;;;;;;;6.57;5.07;;;;;;;;;;5024948;28;20239;-68
2022/01/07 10:25:58;;;;;;;12.30;5.73;;;;;;;;;;5024298;28;20229;-68
2022/01/07 10:28:31;;;;;;;8.07;4.97;;;;;;;;;;5030847;28;20267;-68
2022/01/07 10:30:56;;;;;;;12.33;3.90;;;;;;;;;;5028267;28;20239;-68
2022/01/07 10:33:23;;;;;;;7.23;4.13;;;;;;;;;;5026711;28;20209;-68
2022/01/07 10:35:49;;;;;;;14.00;5.17;;;;;;;;;;5028844;28;20206;-67
2022/01/07 10:38:16;;;;;;;9.97;3.57;;;;;;;;;;5021272;28;20189;-67
2022/01/07 10:40:42;;;;;;;7.97;3.43;;;;;;;;;;5020296;28;20210;-68
2022/01/07 10:43:08;;;;;;;6.27;3.73;;;;;;;;;;5024569;28;20177;-68
2022/01/07 10:45:33;;;;;;;8.47;3.83;;;;;;;;;;5034517;28;20178;-68
2022/01/07 10:47:59;;;;;;;9.93;3.50;;;;;;;;;;5024911;28;20169;-68
2022/01/07 10:50:24;;;;;;;9.13;3.00;;;;;;;;;;5024507;28;20662;-68
2022/01/07 10:52:50;;;;;;;8.60;3.70;;;;;;;;;;5025310;28;20190;-68
2022/01/07 10:55:18;;;;;;;8.50;3.30;;;;;;;;;;5017873;28;20286;-68
2022/01/07 10:57:45;;;;;;;6.83;3.10;;;;;;;;;;5028231;28;20217;-68
2022/01/07 11:00:12;;;;;;;7.40;3.33;;;;;;;;;;5023494;28;20210;-68
2022/01/07 11:02:37;;;;;;;5.47;2.40;;;;;;;;;;5026262;28;21475;-68
2022/01/07 11:05:03;;;;;;;8.23;2.70;;;;;;;;;;5024224;28;20182;-67
2022/01/07 11:07:29;;;;;;;8.30;3.57;;;;;;;;;;5026290;28;20202;-68
2022/01/07 11:09:56;;;;;;;7.43;2.63;;;;;;;;;;5024321;28;20224;-67
2022/01/07 11:12:22;;;;;;;7.67;2.80;;;;;;;;;;5026109;28;20193;-69
2022/01/07 11:14:47;;;;;;;6.50;2.70;;;;;;;;;;5028010;28;20603;-67
2022/01/07 11:17:20;;;;;;;9.20;3.13;;;;;;;;;;5027879;28;20221;-68
2022/01/07 11:19:48;;;;;;;5.57;2.47;;;;;;;;;;5028424;28;20185;-68
2022/01/07 11:22:14;;;;;;;7.73;2.33;;;;;;;;;;5028373;28;20938;-68
2022/01/07 11:24:48;;;;;;;5.53;1.93;;;;;;;;;;5041842;28;21638;-69
2022/01/07 11:27:20;;;;;;;6.83;2.00;;;;;;;;;;5017325;28;20202;-69
2022/01/07 11:29:51;;;;;;;7.60;1.87;;;;;;;;;;5042587;28;20180;-68
2022/01/07 11:32:25;;;;;;;7.23;2.63;;;;;;;;;;5042902;28;20670;-68
2022/01/07 11:34:50;;;;;;;7.67;2.20;;;;;;;;;;5033241;28;20181;-69
2022/01/07 11:37:35;;;;;;;7.30;2.37;;;;;;;;;;5038181;28;20206;-69
2022/01/07 11:40:00;;;;;;;4.77;1.97;;;;;;;;;;5018495;28;20198;-69
2022/01/07 11:42:45;;;;;;;10.33;2.10;;;;;;;;;;5019912;28;20241;-69
2022/01/07 11:45:28;;;;;;;7.20;2.63;;;;;;;;;;5034300;28;20174;-69
2022/01/07 11:48:14;;;;;;;8.97;2.07;;;;;;;;;;5023336;28;20174;-68
2022/01/07 11:50:46;;;;;;;12.70;2.53;;;;;;;;;;5016501;28;20189;-69
2022/01/07 11:53:11;;;;;;;10.20;2.07;;;;;;;;;;5029219;28;20258;-69
2022/01/07 11:55:36;;;;;;;5.87;1.93;;;;;;;;;;5027978;28;20651;-69
2022/01/07 11:58:04;;;;;;;6.33;1.77;;;;;;;;;;5030131;28;20185;-68
2022/01/07 12:00:48;;;;;;;13.33;2.20;;;;;;;;;;5026238;28;20210;-68
2022/01/07 12:03:28;;;;;;;14.33;2.23;;;;;;;;;;5025851;28;20597;-69
2022/01/07 12:05:53;;;;;;;6.03;1.63;;;;;;;;;;5015343;28;20567;-69
2022/01/07 12:08:18;;;;;;;8.00;2.00;;;;;;;;;;5023482;28;20239;-68
2022/01/07 12:10:43;;;;;;;6.90;1.93;;;;;;;;;;5027394;28;20185;-68
2022/01/07 12:13:08;;;;;;;5.07;1.90;;;;;;;;;;5023918;28;20586;-67
2022/01/07 12:15:34;;;;;;;7.57;1.90;;;;;;;;;;5022980;28;20193;-69
2022/01/07 12:18:08;;;;;;;6.67;1.90;;;;;;;;;;5023299;28;20208;-68
2022/01/07 12:20:37;;;;;;;7.40;1.50;;;;;;;;;;5025898;28;20290;-69
2022/01/07 12:23:02;;;;;;;3.77;1.27;;;;;;;;;;5024401;28;20188;-68
2022/01/07 12:25:27;;;;;;;4.47;1.30;;;;;;;;;;5025497;28;20249;-68
2022/01/07 12:28:00;;;;;;;17.77;1.80;;;;;;;;;;5027328;28;20529;-68
2022/01/07 12:30:25;;;;;;;5.37;1.60;;;;;;;;;;5027657;28;20178;-68
2022/01/07 12:32:51;;;;;;;4.97;1.20;;;;;;;;;;5029010;28;20239;-69
2022/01/07 12:35:17;;;;;;;7.17;1.83;;;;;;;;;;5038535;28;20194;-68
2022/01/07 12:37:43;;;;;;;4.37;1.67;;;;;;;;;;5100250;22;20245;-70
2022/01/07 12:40:10;;;;;;;5.87;1.30;;;;;;;;;;5112924;27;20349;-68
2022/01/07 12:42:40;;;;;;;4.30;1.50;;;;;;;;;;5098563;27;20725;-68
2022/01/07 12:45:06;;;;;;;2.57;1.43;;;;;;;;;;5114022;27;20258;-69
2022/01/07 12:47:31;;;;;;;7.07;1.10;;;;;;;;;;5114988;27;20289;-69
2022/01/07 12:50:01;;;;;;;3.37;0.83;;;;;;;;;;5113977;27;20183;-68
2022/01/07 12:52:30;;;;;;;3.33;0.60;;;;;;;;;;5091288;27;20768;-69
2022/01/07 12:54:59;;;;;;;3.20;0.80;;;;;;;;;;5113911;27;20257;-69
2022/01/07 12:57:46;;;;;;;5.47;0.60;;;;;;;;;;5113776;27;20299;-70
2022/01/07 13:00:16;;;;;;;3.03;0.70;;;;;;;;;;5113301;27;20202;-69
2022/01/07 13:02:46;;;;;;;4.93;1.13;;;;;;;;;;5095493;27;20707;-69
2022/01/07 13:05:21;;;;;;;4.63;0.97;;;;;;;;;;5112026;27;20175;-69
2022/01/07 13:07:48;;;;;;;3.87;0.73;;;;;;;;;;5113301;27;20577;-70
2022/01/07 13:10:18;;;;;;;0.37;0.37;;;;;;;;;;5112521;27;20262;-69
2022/01/07 13:12:51;;;;;;;2.03;0.73;;;;;;;;;;5115603;27;20222;-70
2022/01/07 13:15:16;;;;;;;3.87;1.00;;;;;;;;;;5109479;27;20318;-69
2022/01/07 13:17:41;;;;;;;4.93;1.07;;;;;;;;;;5118280;27;20651;-70
2022/01/07 13:20:07;;;;;;;1.90;0.63;;;;;;;;;;5116280;27;20628;-68
2022/01/07 13:22:32;;;;;;;2.93;0.90;;;;;;;;;;5114127;27;20191;-70
2022/01/07 13:24:57;;;;;;;3.33;0.90;;;;;;;;;;5112026;27;20179;-69
2022/01/07 13:27:23;;;;;;;2.67;0.77;;;;;;;;;;5112126;27;20679;-70
2022/01/07 13:29:48;;;;;;;3.60;0.73;;;;;;;;;;5113537;27;20186;-69
2022/01/07 13:32:19;;;;;;;3.63;1.20;;;;;;;;;;5110009;27;20678;-69
2022/01/07 13:34:44;;;;;;;6.67;1.20;;;;;;;;;;5110529;27;20183;-68
2022/01/07 13:37:13;;;;;;;5.27;0.73;;;;;;;;;;5115640;27;20202;-69
2022/01/07 13:39:41;;;;;;;3.00;0.97;;;;;;;;;;5119285;27;20171;-68
2022/01/07 13:42:07;;;;;;;5.07;0.90;;;;;;;;;;5111114;27;20175;-68
2022/01/07 13:44:48;;;;;;;4.70;1.40;;;;;;;;;;5108652;28;20783;-69
2022/01/07 13:47:18;;;;;;;6.53;1.10;;;;;;;;;;5110300;28;20206;-69
2022/01/07 13:49:43;;;;;;;4.47;0.97;;;;;;;;;;5116204;28;20179;-70
2022/01/07 13:52:08;;;;;;;3.03;1.07;;;;;;;;;;5113356;28;20216;-70
2022/01/07 13:54:40;;;;;;;3.57;1.10;;;;;;;;;;5111374;28;21321;-69
2022/01/07 13:57:08;;;;;;;3.00;0.83;;;;;;;;;;5112179;28;20217;-69
2022/01/07 14:00:00;;;;;;;1.37;0.70;;;;;;;;;;5111626;28;20182;-69
2022/01/07 14:02:26;;;;;;;8.33;1.53;;;;;;;;;;5104765;28;20191;-70
2022/01/07 14:04:53;;;;;;;2.13;0.90;;;;;;;;;;5113462;28;20644;-69
2022/01/07 14:07:25;;;;;;;5.63;0.90;;;;;;;;;;5110332;28;20648;-70
2022/01/07 14:10:05;;;;;;;2.90;1.17;;;;;;;;;;5110230;28;20179;-69
2022/01/07 14:12:30;;;;;;;2.70;0.90;;;;;;;;;;5110125;28;20312;-70
2022/01/07 14:15:03;;;;;;;1.73;0.57;;;;;;;;;;5109839;28;20333;-70
2022/01/07 14:17:30;;;;;;;4.73;0.77;;;;;;;;;;5097435;28;20245;-69
2022/01/07 14:19:55;;;;;;;1.77;0.70;;;;;;;;;;5114208;28;20183;-70
2022/01/07 14:22:21;;;;;;;3.37;1.13;;;;;;;;;;5096365;28;20178;-69
2022/01/07 14:24:46;;;;;;;2.37;1.20;;;;;;;;;;5111394;28;20179;-69
2022/01/07 14:27:11;;;;;;;4.33;1.33;;;;;;;;;;5113376;28;20668;-69
2022/01/07 14:29:36;;;;;;;3.77;1.10;;;;;;;;;;5114127;28;20186;-70
2022/01/07 14:32:02;;;;;;;2.03;1.07;;;;;;;;;;5096430;28;20183;-70
2022/01/07 14:34:27;;;;;;;7.53;1.00;;;;;;;;;;5094930;28;20641;-70
2022/01/07 14:36:52;;;;;;;4.53;1.37;;;;;;;;;;5113519;28;20221;-69
2022/01/07 14:39:17;;;;;;;2.83;0.63;;;;;;;;;;5113073;27;20186;-70
2022/01/07 14:41:43;;;;;;;3.90;0.67;;;;;;;;;;5118638;27;20259;-69